createdAt,value
2023-02-23T00:01:52.120Z,68.05
2023-02-23T00:06:46.533Z,66.43
2023-02-23T00:11:39.668Z,66.20
2023-02-23T00:16:33.552Z,71.82
2023-02-23T00:21:51.928Z,69.95
2023-02-23T00:26:46.285Z,69.43
2023-02-23T00:31:40.263Z,70.10
2023-02-23T00:36:34.577Z,64.13
2023-02-23T00:41:29.283Z,73.28
2023-02-23T00:46:23.801Z,71.57
2023-02-23T00:51:18.476Z,70.00
2023-02-23T00:56:14.476Z,68.85
2023-02-23T01:01:12.457Z,68.72
2023-02-23T01:06:08.377Z,70.23
2023-02-23T01:11:06.613Z,69.40
2023-02-23T01:15:59.513Z,69.38
2023-02-23T01:20:52.600Z,72.22
2023-02-23T01:25:45.958Z,73.45
2023-02-23T01:30:40.065Z,64.70
2023-02-23T01:35:34.475Z,64.22
2023-02-23T01:40:30.354Z,62.63
2023-02-23T01:45:31.174Z,62.05
2023-02-23T01:50:27.103Z,66.32
2023-02-23T01:55:24.664Z,69.07
2023-02-23T02:00:20.753Z,69.50
2023-02-23T02:05:14.683Z,73.88
2023-02-23T02:10:11.791Z,71.25
2023-02-23T02:15:17.699Z,67.55
2023-02-23T02:20:44.698Z,69.60
2023-02-23T02:25:55.732Z,68.53
2023-02-23T02:31:07.143Z,70.22
2023-02-23T02:36:05.241Z,71.70
2023-02-23T02:41:14.642Z,68.27
2023-02-23T02:46:22.147Z,70.18
2023-02-23T02:51:35.606Z,73.95
2023-02-23T02:56:30.044Z,67.68
2023-02-23T03:01:42.041Z,72.45
2023-02-23T03:06:56.629Z,66.53
2023-02-23T03:12:39.723Z,68.65
2023-02-23T03:18:08.380Z,67.05
2023-02-23T03:23:33.936Z,67.30
2023-02-23T03:28:51.436Z,65.22
2023-02-23T03:34:41.533Z,65.93
2023-02-23T03:39:56.839Z,68.27
2023-02-23T03:45:10.027Z,64.65
2023-02-23T03:50:24.788Z,65.20
2023-02-23T03:55:44.785Z,64.13
2023-02-23T04:01:04.427Z,63.03
2023-02-23T04:06:17.144Z,60.50
2023-02-23T04:11:58.908Z,60.47
2023-02-23T04:16:53.269Z,61.95
2023-02-23T04:21:46.623Z,55.85
2023-02-23T04:26:40.336Z,56.58
2023-02-23T04:31:32.806Z,55.15
2023-02-23T04:36:27.316Z,55.10
2023-02-23T04:41:21.149Z,57.33
2023-02-23T04:46:15.120Z,59.25
2023-02-23T04:51:08.615Z,55.53
2023-02-23T04:56:02.128Z,58.53
2023-02-23T05:00:55.430Z,54.55
2023-02-23T05:05:48.696Z,54.45
2023-02-23T05:10:42.793Z,57.03
2023-02-23T05:15:37.195Z,54.60
2023-02-23T05:20:30.855Z,51.90
2023-02-23T05:25:24.308Z,54.10
2023-02-23T05:30:17.620Z,55.90
2023-02-23T05:35:11.242Z,54.47
2023-02-23T05:40:07.027Z,55.97
2023-02-23T05:45:01.966Z,55.97
2023-02-23T05:49:54.607Z,56.53
2023-02-23T05:54:48.103Z,57.85
2023-02-23T05:59:41.388Z,55.85
2023-02-23T06:04:34.747Z,59.47
2023-02-23T06:09:28.976Z,57.92
2023-02-23T06:14:21.892Z,54.97
2023-02-23T06:19:15.064Z,58.72
2023-02-23T06:24:09.129Z,56.85
2023-02-23T06:29:03.469Z,56.05
2023-02-23T06:33:56.946Z,58.67
2023-02-23T06:38:52.067Z,64.40
2023-02-23T06:43:46.408Z,63.65
2023-02-23T06:48:40.369Z,62.03
2023-02-23T06:53:33.856Z,61.33
2023-02-23T06:58:26.938Z,59.67
2023-02-23T07:03:19.570Z,60.15
2023-02-23T07:08:12.874Z,62.15
2023-02-23T07:13:06.162Z,59.78
2023-02-23T07:18:00.112Z,59.75
2023-02-23T07:22:53.330Z,62.50
2023-02-23T07:27:47.086Z,63.85
2023-02-23T07:32:40.353Z,122.85
2023-02-23T07:37:33.677Z,206.70
2023-02-23T07:42:27.924Z,64.28
2023-02-23T07:47:23.003Z,56.38
2023-02-23T07:52:18.836Z,60.90
2023-02-23T07:57:12.496Z,63.70
2023-02-23T08:02:05.572Z,61.00
2023-02-23T08:06:59.155Z,63.38
2023-02-23T08:11:52.236Z,79.97
2023-02-23T08:16:46.698Z,69.65
2023-02-23T08:21:39.705Z,66.88
2023-02-23T08:26:33.041Z,61.28
2023-02-23T08:31:28.341Z,61.65
2023-02-23T08:36:21.170Z,64.70
2023-02-23T08:41:13.839Z,63.75
2023-02-23T08:46:09.554Z,60.90
2023-02-23T08:51:03.690Z,64.78
2023-02-23T08:56:16.742Z,62.55
2023-02-23T09:01:15.153Z,61.63
2023-02-23T09:06:12.244Z,87.88
2023-02-23T09:11:07.107Z,66.82
2023-02-23T09:15:59.868Z,66.13
2023-02-23T09:20:53.736Z,67.43
2023-02-23T09:25:47.748Z,66.65
2023-02-23T09:30:41.740Z,66.18
2023-02-23T09:35:36.317Z,67.15
2023-02-23T09:40:33.781Z,62.08
2023-02-23T09:45:30.731Z,62.95
2023-02-23T09:50:26.079Z,63.35
2023-02-23T09:55:19.446Z,64.75
2023-02-23T10:00:27.831Z,62.50
2023-02-23T10:05:23.140Z,62.73
2023-02-23T10:10:19.450Z,63.30
2023-02-23T10:15:41.896Z,61.97
2023-02-23T10:20:53.540Z,57.05
2023-02-23T10:25:49.229Z,49.95
2023-02-23T10:30:42.900Z,52.10
2023-02-23T10:35:37.149Z,56.17
2023-02-23T10:40:33.653Z,56.17
2023-02-23T10:45:27.724Z,40.72
2023-02-23T10:50:22.680Z,38.13
2023-02-23T10:55:30.916Z,38.72
2023-02-23T11:00:33.338Z,34.53
2023-02-23T11:05:35.053Z,28.63
2023-02-23T11:10:29.240Z,29.17
2023-02-23T11:15:35.187Z,28.65
2023-02-23T11:20:40.550Z,30.02
2023-02-23T11:25:33.929Z,28.83
2023-02-23T11:30:47.513Z,29.95
2023-02-23T11:35:41.510Z,27.75
2023-02-23T11:40:35.457Z,26.33
2023-02-23T11:45:48.686Z,27.25
2023-02-23T11:51:01.570Z,35.17
2023-02-23T11:55:55.830Z,32.20
2023-02-23T12:01:03.064Z,26.52
2023-02-23T12:05:57.783Z,33.00
2023-02-23T12:10:54.520Z,30.67
2023-02-23T12:16:02.970Z,37.25
2023-02-23T12:20:56.984Z,39.93
2023-02-23T12:25:59.478Z,35.88
2023-02-23T12:30:57.998Z,35.22
2023-02-23T12:36:20.128Z,35.65
2023-02-23T12:41:16.986Z,33.45
2023-02-23T12:46:16.408Z,34.47
2023-02-23T12:51:25.230Z,37.00
2023-02-23T12:56:35.662Z,36.50
2023-02-23T13:01:42.140Z,36.65
2023-02-23T13:06:46.635Z,37.97
2023-02-23T13:11:54.012Z,38.65
2023-02-23T13:16:58.140Z,38.92
2023-02-23T13:22:33.175Z,40.60
2023-02-23T13:27:39.439Z,38.50
2023-02-23T13:32:34.489Z,40.70
2023-02-23T13:37:41.015Z,39.95
2023-02-23T13:42:52.391Z,37.35
2023-02-23T13:47:55.901Z,37.47
2023-02-23T13:52:49.866Z,36.65
2023-02-23T13:57:46.277Z,36.38
2023-02-23T14:02:43.642Z,36.75
2023-02-23T14:07:40.143Z,34.35
2023-02-23T14:12:32.832Z,35.17
2023-02-23T14:17:57.266Z,34.90
2023-02-23T14:23:19.298Z,35.42
2023-02-23T14:28:35.941Z,37.60
2023-02-23T14:33:51.452Z,35.97
2023-02-23T14:38:48.236Z,35.28
2023-02-23T14:43:45.423Z,35.55
2023-02-23T14:48:41.897Z,34.67
2023-02-23T14:53:34.906Z,36.60
2023-02-23T14:58:33.607Z,38.95
2023-02-23T15:03:27.860Z,38.03
2023-02-23T15:08:24.729Z,36.72
2023-02-23T15:13:39.163Z,37.67
2023-02-23T15:18:36.885Z,36.38
2023-02-23T15:23:38.031Z,37.67
2023-02-23T15:28:34.327Z,36.92
2023-02-23T15:33:30.468Z,37.80
2023-02-23T15:38:43.869Z,37.17
2023-02-23T15:43:37.628Z,36.67
2023-02-23T15:48:51.357Z,36.55
2023-02-23T15:53:44.568Z,33.13
2023-02-23T15:58:56.024Z,33.05
2023-02-23T16:04:18.470Z,32.60
2023-02-23T16:09:24.191Z,33.22
2023-02-23T16:14:18.835Z,33.33
2023-02-23T16:19:13.748Z,33.10
2023-02-23T16:24:15.431Z,35.20
2023-02-23T16:29:08.938Z,35.35
2023-02-23T16:34:04.183Z,34.03
2023-02-23T16:38:59.547Z,35.28
2023-02-23T16:43:55.246Z,37.78
2023-02-23T16:48:48.409Z,36.45
2023-02-23T16:53:41.618Z,38.40
2023-02-23T16:58:36.565Z,41.33
2023-02-23T17:03:32.654Z,43.03
2023-02-23T17:08:28.631Z,39.53
2023-02-23T17:13:23.914Z,38.85
2023-02-23T17:18:21.614Z,39.00
2023-02-23T17:23:15.769Z,36.65
2023-02-23T17:28:08.933Z,39.08
2023-02-23T17:33:02.752Z,42.17
2023-02-23T17:37:56.277Z,45.13
2023-02-23T17:42:50.628Z,44.92
2023-02-23T17:47:44.124Z,46.78
2023-02-23T17:52:38.073Z,47.53
2023-02-23T17:57:31.225Z,49.83
2023-02-23T18:02:24.802Z,54.72
2023-02-23T18:07:19.573Z,59.08
2023-02-23T18:12:12.689Z,43.97
2023-02-23T18:17:05.422Z,45.03
2023-02-23T18:21:59.035Z,46.50
2023-02-23T18:26:52.301Z,49.42
2023-02-23T18:31:46.521Z,57.92
2023-02-23T18:36:40.048Z,48.83
2023-02-23T18:41:34.496Z,44.95
2023-02-23T18:46:28.304Z,50.53
2023-02-23T18:51:22.695Z,54.35
2023-02-23T18:56:23.806Z,54.50
2023-02-23T19:01:20.906Z,49.58
2023-02-23T19:06:16.250Z,48.47
2023-02-23T19:11:10.586Z,44.97
2023-02-23T19:16:08.638Z,45.70
2023-02-23T19:21:01.766Z,47.10
2023-02-23T19:25:54.822Z,52.70
2023-02-23T19:30:50.200Z,47.75
2023-02-23T19:35:44.614Z,46.15
2023-02-23T19:40:43.802Z,47.47
2023-02-23T19:45:37.525Z,45.35
2023-02-23T19:50:32.486Z,44.70
2023-02-23T19:55:25.959Z,46.08
2023-02-23T20:00:22.126Z,45.58
2023-02-23T20:05:17.231Z,44.45
2023-02-23T20:10:17.160Z,51.17
2023-02-23T20:15:11.554Z,57.22
2023-02-23T20:20:06.875Z,66.35
2023-02-23T20:24:59.798Z,65.47
2023-02-23T20:29:55.107Z,57.13
2023-02-23T20:34:49.395Z,58.38
2023-02-23T20:39:42.279Z,53.45
2023-02-23T20:44:35.232Z,57.70
2023-02-23T20:49:29.880Z,58.45
2023-02-23T20:54:22.741Z,55.83
2023-02-23T20:59:16.745Z,58.92
2023-02-23T21:04:10.400Z,58.67
2023-02-23T21:09:05.331Z,60.83
2023-02-23T21:13:58.546Z,56.50
2023-02-23T21:19:04.831Z,56.75
2023-02-23T21:23:58.865Z,61.72
2023-02-23T21:28:52.745Z,64.57
2023-02-23T21:33:46.095Z,57.42
2023-02-23T21:38:40.711Z,59.28
2023-02-23T21:43:36.120Z,60.63
2023-02-23T21:48:30.075Z,53.55
2023-02-23T21:53:23.113Z,52.63
2023-02-23T21:58:16.750Z,53.10
2023-02-23T22:03:10.557Z,58.30
2023-02-23T22:08:04.758Z,53.53
2023-02-23T22:12:58.034Z,54.83
2023-02-23T22:17:52.678Z,48.88
2023-02-23T22:22:46.091Z,52.83
2023-02-23T22:27:42.134Z,60.25
2023-02-23T22:32:35.128Z,58.67
2023-02-23T22:37:32.550Z,58.63
2023-02-23T22:42:29.573Z,56.17
2023-02-23T22:47:22.602Z,53.40
2023-02-23T22:52:15.302Z,52.80
2023-02-23T22:57:09.337Z,50.90
2023-02-23T23:02:02.791Z,54.90
2023-02-23T23:06:55.447Z,52.85
2023-02-23T23:11:51.177Z,53.47
2023-02-23T23:16:48.100Z,51.85
2023-02-23T23:21:43.336Z,50.78
2023-02-23T23:26:39.981Z,50.05
2023-02-23T23:31:35.537Z,57.03
2023-02-23T23:36:32.997Z,58.08
2023-02-23T23:41:27.625Z,54.97
2023-02-23T23:46:24.135Z,57.35
2023-02-23T23:51:18.231Z,59.25
2023-02-23T23:56:12.040Z,57.90
